createdAt,value
2023-01-30T00:01:26.453Z,37.29
2023-01-30T00:03:56.366Z,37.20
2023-01-30T00:06:25.264Z,37.25
2023-01-30T00:08:53.896Z,37.17
2023-01-30T00:11:22.716Z,37.17
2023-01-30T00:13:51.698Z,37.06
2023-01-30T00:16:20.334Z,37.13
2023-01-30T00:18:48.988Z,37.23
2023-01-30T00:21:19.083Z,37.05
2023-01-30T00:23:47.673Z,37.10
2023-01-30T00:26:16.239Z,37.15
2023-01-30T00:28:45.052Z,36.99
2023-01-30T00:31:13.829Z,37.05
2023-01-30T00:33:42.350Z,36.93
2023-01-30T00:36:11.512Z,36.95
2023-01-30T00:38:41.380Z,37.03
2023-01-30T00:41:11.026Z,37.04
2023-01-30T00:43:57.164Z,37.00
2023-01-30T00:46:46.293Z,36.88
2023-01-30T00:49:14.903Z,36.93
2023-01-30T00:51:43.453Z,36.95
2023-01-30T00:54:13.396Z,36.92
2023-01-30T00:56:42.098Z,36.82
2023-01-30T00:59:10.664Z,36.95
2023-01-30T01:01:39.254Z,36.79
2023-01-30T01:04:08.937Z,36.88
2023-01-30T01:06:38.282Z,36.84
2023-01-30T01:09:06.875Z,36.74
2023-01-30T01:11:36.842Z,36.73
2023-01-30T01:14:06.066Z,36.70
2023-01-30T01:16:35.262Z,36.51
2023-01-30T01:19:04.220Z,36.57
2023-01-30T01:21:32.750Z,36.55
2023-01-30T01:24:01.548Z,36.62
2023-01-30T01:26:30.334Z,36.73
2023-01-30T01:29:00.412Z,36.53
2023-01-30T01:31:29.089Z,36.53
2023-01-30T01:33:57.862Z,36.52
2023-01-30T01:36:52.098Z,36.47
2023-01-30T01:39:15.530Z,36.42
2023-01-30T01:41:43.101Z,36.46
2023-01-30T01:44:13.844Z,36.42
2023-01-30T01:46:46.096Z,36.24
2023-01-30T01:49:17.952Z,36.36
2023-01-30T01:51:51.877Z,36.13
2023-01-30T01:54:24.358Z,36.19
2023-01-30T01:56:52.973Z,36.26
2023-01-30T01:59:26.666Z,36.19
2023-01-30T02:01:56.344Z,36.32
2023-01-30T02:04:38.810Z,36.20
2023-01-30T02:07:07.391Z,36.29
2023-01-30T02:09:36.229Z,36.01
2023-01-30T02:12:04.917Z,36.19
2023-01-30T02:14:35.313Z,36.22
2023-01-30T02:17:04.276Z,36.11
2023-01-30T02:19:39.241Z,36.11
2023-01-30T02:22:37.177Z,36.03
2023-01-30T02:25:44.376Z,36.08
2023-01-30T02:28:37.333Z,36.02
2023-01-30T02:31:18.809Z,35.97
2023-01-30T02:33:55.403Z,35.99
2023-01-30T02:36:29.961Z,35.98
2023-01-30T02:39:04.735Z,35.98
2023-01-30T02:41:38.103Z,36.02
2023-01-30T02:44:08.246Z,35.92
2023-01-30T02:46:44.786Z,35.96
2023-01-30T02:49:15.897Z,36.02
2023-01-30T02:51:45.882Z,35.98
2023-01-30T02:54:14.454Z,35.96
2023-01-30T02:56:47.927Z,35.91
2023-01-30T02:59:17.889Z,35.86
2023-01-30T03:02:14.781Z,35.76
2023-01-30T03:05:00.728Z,35.84
2023-01-30T03:07:37.500Z,35.86
2023-01-30T03:10:10.345Z,35.74
2023-01-30T03:12:44.964Z,35.78
2023-01-30T03:15:18.071Z,35.83
2023-01-30T03:17:48.386Z,35.70
2023-01-30T03:20:17.467Z,35.50
2023-01-30T03:22:46.028Z,35.75
2023-01-30T03:25:17.317Z,35.89
2023-01-30T03:27:46.155Z,35.67
2023-01-30T03:30:15.762Z,35.65
2023-01-30T03:32:44.527Z,35.64
2023-01-30T03:35:18.012Z,35.63
2023-01-30T03:37:46.933Z,35.58
2023-01-30T03:40:16.282Z,35.67
2023-01-30T03:42:44.803Z,35.54
2023-01-30T03:45:13.654Z,35.61
2023-01-30T03:47:42.508Z,35.61
2023-01-30T03:50:13.581Z,35.67
2023-01-30T03:52:42.428Z,35.51
2023-01-30T03:55:11.997Z,35.54
2023-01-30T03:57:40.567Z,35.60
2023-01-30T04:00:11.551Z,35.55
2023-01-30T04:02:40.128Z,35.59
2023-01-30T04:05:09.218Z,35.55
2023-01-30T04:07:39.109Z,35.46
2023-01-30T04:10:08.818Z,35.52
2023-01-30T04:12:37.553Z,35.52
2023-01-30T04:15:07.600Z,35.40
2023-01-30T04:17:36.156Z,35.41
2023-01-30T04:20:05.197Z,35.41
2023-01-30T04:22:33.708Z,35.33
2023-01-30T04:25:03.819Z,35.44
2023-01-30T04:27:32.415Z,35.42
2023-01-30T04:30:01.160Z,35.31
2023-01-30T04:32:29.669Z,35.37
2023-01-30T04:34:58.226Z,35.32
2023-01-30T04:37:26.788Z,35.22
2023-01-30T04:39:55.302Z,35.28
2023-01-30T04:42:25.365Z,35.32
2023-01-30T04:44:53.860Z,35.31
2023-01-30T04:47:22.442Z,35.36
2023-01-30T04:49:51.302Z,35.23
2023-01-30T04:52:19.843Z,35.28
2023-01-30T04:54:48.321Z,35.19
2023-01-30T04:57:16.941Z,35.21
2023-01-30T04:59:46.837Z,35.18
2023-01-30T05:02:15.700Z,35.25
2023-01-30T05:04:44.325Z,35.19
2023-01-30T05:07:12.946Z,35.17
2023-01-30T05:09:41.447Z,35.20
2023-01-30T05:12:10.084Z,35.19
2023-01-30T05:14:41.372Z,35.16
2023-01-30T05:17:11.385Z,35.21
2023-01-30T05:19:44.179Z,35.30
2023-01-30T05:22:12.779Z,35.10
2023-01-30T05:24:41.275Z,35.18
2023-01-30T05:27:09.856Z,35.25
2023-01-30T05:29:38.435Z,35.13
2023-01-30T05:32:07.733Z,35.05
2023-01-30T05:34:37.627Z,35.08
2023-01-30T05:37:06.300Z,34.97
2023-01-30T05:39:35.076Z,35.07
2023-01-30T05:42:03.778Z,35.16
2023-01-30T05:44:32.461Z,35.07
2023-01-30T05:47:00.989Z,35.09
2023-01-30T05:49:29.545Z,35.02
2023-01-30T05:51:59.794Z,35.13
2023-01-30T05:54:28.365Z,35.01
2023-01-30T05:56:56.907Z,35.05
2023-01-30T05:59:25.498Z,34.92
2023-01-30T06:01:53.991Z,35.08
2023-01-30T06:04:22.682Z,35.03
2023-01-30T06:06:51.670Z,35.21
2023-01-30T06:09:21.571Z,35.27
2023-01-30T06:11:52.432Z,35.05
2023-01-30T06:14:21.649Z,35.10
2023-01-30T06:16:50.335Z,35.26
2023-01-30T06:19:19.189Z,35.00
2023-01-30T06:21:47.861Z,35.17
2023-01-30T06:24:16.649Z,35.34
2023-01-30T06:26:46.554Z,35.23
2023-01-30T06:29:15.573Z,35.32
2023-01-30T06:31:44.213Z,36.05
2023-01-30T06:34:13.095Z,35.85
2023-01-30T06:36:41.808Z,36.00
2023-01-30T06:39:10.748Z,35.74
2023-01-30T06:41:39.269Z,35.67
2023-01-30T06:44:10.570Z,35.62
2023-01-30T06:46:39.088Z,35.82
2023-01-30T06:49:07.603Z,35.74
2023-01-30T06:51:36.138Z,35.71
2023-01-30T06:54:04.703Z,36.29
2023-01-30T06:56:33.421Z,35.81
2023-01-30T06:59:01.925Z,36.00
2023-01-30T07:01:32.323Z,33.99
2023-01-30T07:04:01.015Z,34.89
2023-01-30T07:06:31.429Z,35.51
2023-01-30T07:09:00.002Z,35.47
2023-01-30T07:11:28.707Z,35.79
2023-01-30T07:13:57.270Z,35.87
2023-01-30T07:16:29.461Z,36.30
2023-01-30T07:18:59.702Z,35.94
2023-01-30T07:21:28.443Z,36.42
2023-01-30T07:23:56.933Z,37.05
2023-01-30T07:26:25.761Z,37.48
2023-01-30T07:28:54.347Z,37.42
2023-01-30T07:31:22.926Z,37.01
2023-01-30T07:33:51.631Z,36.83
2023-01-30T07:36:21.594Z,36.05
2023-01-30T07:38:50.359Z,36.71
2023-01-30T07:41:19.275Z,36.65
2023-01-30T07:43:49.763Z,36.35
2023-01-30T07:46:18.333Z,36.37
2023-01-30T07:48:47.009Z,36.46
2023-01-30T07:51:15.809Z,36.51
2023-01-30T07:53:45.800Z,36.53
2023-01-30T07:56:18.764Z,36.53
2023-01-30T07:58:47.357Z,36.50
2023-01-30T08:01:16.296Z,36.35
2023-01-30T08:03:46.880Z,36.45
2023-01-30T08:06:15.738Z,36.52
2023-01-30T08:08:46.307Z,36.23
2023-01-30T08:11:14.944Z,36.42
2023-01-30T08:13:43.805Z,36.22
2023-01-30T08:16:12.450Z,36.28
2023-01-30T08:18:41.226Z,36.46
2023-01-30T08:21:10.190Z,36.21
2023-01-30T08:23:38.753Z,36.09
2023-01-30T08:26:08.838Z,36.09
2023-01-30T08:28:37.436Z,35.55
2023-01-30T08:31:11.603Z,35.89
2023-01-30T08:33:40.363Z,36.04
2023-01-30T08:36:10.088Z,35.13
2023-01-30T08:38:38.811Z,35.46
2023-01-30T08:41:09.819Z,35.65
2023-01-30T08:43:38.590Z,35.64
2023-01-30T08:46:07.247Z,35.82
2023-01-30T08:48:49.180Z,35.80
2023-01-30T08:51:18.845Z,35.77
2023-01-30T08:53:47.455Z,35.74
2023-01-30T08:56:17.363Z,35.69
2023-01-30T08:58:46.700Z,35.74
2023-01-30T09:01:15.582Z,35.75
2023-01-30T09:03:44.181Z,36.10
2023-01-30T09:06:12.918Z,36.00
2023-01-30T09:08:41.518Z,35.51
2023-01-30T09:11:11.435Z,36.14
2023-01-30T09:13:43.724Z,36.00
2023-01-30T09:16:12.978Z,36.26
2023-01-30T09:18:42.414Z,36.85
2023-01-30T09:21:11.446Z,36.83
2023-01-30T09:23:39.997Z,37.15
2023-01-30T09:26:08.639Z,37.39
2023-01-30T09:28:37.228Z,37.30
2023-01-30T09:31:07.251Z,37.50
2023-01-30T09:33:35.904Z,37.23
2023-01-30T09:36:04.846Z,37.16
2023-01-30T09:38:33.499Z,36.96
2023-01-30T09:41:19.768Z,37.17
2023-01-30T09:44:03.486Z,36.91
2023-01-30T09:46:37.474Z,36.88
2023-01-30T09:49:12.198Z,36.80
2023-01-30T09:51:50.344Z,36.82
2023-01-30T09:54:24.522Z,36.65
2023-01-30T09:57:22.171Z,36.55
2023-01-30T09:59:57.512Z,36.64
2023-01-30T10:02:42.658Z,36.23
2023-01-30T10:05:11.416Z,36.26
2023-01-30T10:07:53.480Z,36.79
2023-01-30T10:10:27.238Z,36.65
2023-01-30T10:13:03.198Z,36.54
2023-01-30T10:15:44.021Z,36.52
2023-01-30T10:18:36.925Z,36.58
2023-01-30T10:21:12.854Z,37.37
2023-01-30T10:24:16.555Z,37.51
2023-01-30T10:26:45.254Z,37.91
2023-01-30T10:29:16.617Z,38.07
2023-01-30T10:31:47.827Z,38.16
2023-01-30T10:34:20.757Z,38.06
2023-01-30T10:36:53.770Z,38.45
2023-01-30T10:39:27.897Z,40.10
2023-01-30T10:42:00.745Z,38.61
2023-01-30T10:44:29.305Z,37.65
2023-01-30T10:47:32.185Z,39.11
2023-01-30T10:50:16.197Z,38.26
2023-01-30T10:52:50.951Z,42.06
2023-01-30T10:55:37.101Z,40.21
2023-01-30T10:58:14.676Z,39.77
2023-01-30T11:00:44.967Z,39.72
2023-01-30T11:03:23.614Z,39.58
2023-01-30T11:05:54.481Z,40.19
2023-01-30T11:08:27.527Z,39.69
2023-01-30T11:10:56.730Z,39.78
2023-01-30T11:13:30.493Z,42.19
2023-01-30T11:16:01.207Z,40.77
2023-01-30T11:21:27.067Z,40.51
2023-01-30T11:24:05.863Z,40.19
2023-01-30T11:26:46.662Z,40.75
2023-01-30T11:29:27.924Z,40.75
2023-01-30T11:31:56.803Z,40.72
2023-01-30T11:34:25.935Z,40.64
2023-01-30T11:36:56.053Z,40.95
2023-01-30T11:39:29.218Z,40.20
2023-01-30T11:42:04.749Z,40.58
2023-01-30T11:44:35.982Z,40.04
2023-01-30T11:47:08.347Z,39.21
2023-01-30T11:49:47.726Z,42.02
2023-01-30T11:52:31.569Z,41.87
2023-01-30T11:55:05.430Z,41.96
2023-01-30T11:57:41.342Z,42.28
2023-01-30T12:00:18.231Z,42.50
2023-01-30T12:02:48.090Z,42.28
2023-01-30T12:05:26.360Z,42.33
2023-01-30T12:08:04.558Z,41.70
2023-01-30T12:10:33.304Z,42.09
2023-01-30T12:13:02.759Z,46.82
2023-01-30T12:15:33.723Z,42.08
2023-01-30T12:18:06.079Z,42.70
2023-01-30T12:20:47.110Z,42.57
2023-01-30T12:23:22.288Z,42.66
2023-01-30T12:25:58.223Z,42.68
2023-01-30T12:28:32.092Z,43.20
2023-01-30T12:31:05.403Z,42.16
2023-01-30T12:33:35.658Z,45.52
2023-01-30T12:36:12.344Z,44.98
2023-01-30T12:39:04.671Z,44.64
2023-01-30T12:42:00.093Z,45.13
2023-01-30T12:44:46.281Z,45.97
2023-01-30T12:47:35.405Z,42.71
2023-01-30T12:50:22.044Z,42.98
2023-01-30T12:53:14.987Z,42.83
2023-01-30T12:55:51.984Z,43.70
2023-01-30T12:58:22.925Z,43.97
2023-01-30T13:01:07.033Z,45.37
2023-01-30T13:03:42.732Z,44.93
2023-01-30T13:06:28.125Z,45.59
2023-01-30T13:09:09.121Z,45.14
2023-01-30T13:11:55.151Z,44.35
2023-01-30T13:14:29.722Z,45.80
2023-01-30T13:17:16.125Z,43.47
2023-01-30T13:19:48.501Z,44.64
2023-01-30T13:22:23.357Z,44.45
2023-01-30T13:25:00.585Z,43.34
2023-01-30T13:27:30.662Z,43.11
2023-01-30T13:29:59.271Z,45.60
2023-01-30T13:32:37.040Z,46.30
2023-01-30T13:35:07.672Z,45.15
2023-01-30T13:37:36.227Z,44.50
2023-01-30T13:40:15.258Z,45.53
2023-01-30T13:42:47.546Z,43.35
2023-01-30T13:45:17.973Z,44.35
2023-01-30T13:47:54.340Z,46.82
2023-01-30T13:50:37.892Z,46.85
2023-01-30T13:53:09.783Z,46.58
2023-01-30T13:55:43.008Z,46.60
2023-01-30T13:58:20.239Z,46.14
2023-01-30T14:00:55.373Z,45.80
2023-01-30T14:03:32.374Z,44.64
2023-01-30T14:06:24.093Z,44.33
2023-01-30T14:08:59.518Z,44.20
2023-01-30T14:11:35.534Z,43.90
2023-01-30T14:14:28.184Z,43.50
2023-01-30T14:16:58.584Z,45.82
2023-01-30T14:20:12.616Z,43.82
2023-01-30T14:22:49.313Z,43.59
2023-01-30T14:25:49.370Z,43.05
2023-01-30T14:28:55.358Z,43.09
2023-01-30T14:31:49.941Z,42.82
2023-01-30T14:34:42.360Z,42.65
2023-01-30T14:38:11.809Z,43.22
2023-01-30T14:41:02.815Z,42.37
2023-01-30T14:43:52.320Z,43.05
2023-01-30T14:46:54.585Z,43.28
2023-01-30T14:49:34.321Z,42.21
2023-01-30T14:52:03.932Z,42.31
2023-01-30T14:54:45.085Z,42.26
2023-01-30T14:57:33.069Z,42.00
2023-01-30T15:00:16.168Z,41.68
2023-01-30T15:02:51.742Z,41.65
2023-01-30T15:05:26.421Z,41.73
2023-01-30T15:07:58.049Z,41.98
2023-01-30T15:10:50.808Z,42.18
2023-01-30T15:13:46.226Z,41.81
2023-01-30T15:16:37.039Z,41.71
2023-01-30T15:19:26.149Z,41.47
2023-01-30T15:22:05.363Z,41.67
2023-01-30T15:25:19.287Z,41.41
2023-01-30T15:27:59.339Z,41.39
2023-01-30T15:30:57.458Z,41.52
2023-01-30T15:33:31.433Z,41.26
2023-01-30T15:36:01.123Z,41.24
2023-01-30T15:38:32.615Z,42.64
2023-01-30T15:41:02.592Z,43.07
2023-01-30T15:44:08.464Z,42.30
2023-01-30T15:46:44.986Z,42.33
2023-01-30T15:49:43.490Z,41.69
2023-01-30T15:52:16.244Z,42.09
2023-01-30T15:54:51.388Z,42.49
2023-01-30T15:57:25.219Z,43.01
2023-01-30T15:59:54.801Z,43.75
2023-01-30T16:02:29.888Z,43.30
2023-01-30T16:05:17.685Z,43.50
2023-01-30T16:07:47.577Z,43.59
2023-01-30T16:10:19.741Z,43.77
2023-01-30T16:12:48.678Z,43.62
2023-01-30T16:15:20.095Z,43.41
2023-01-30T16:17:57.007Z,43.60
2023-01-30T16:20:25.602Z,43.54
2023-01-30T16:22:54.219Z,43.22
2023-01-30T16:25:26.576Z,42.66
2023-01-30T16:27:55.518Z,42.54
2023-01-30T16:30:26.463Z,43.17
2023-01-30T16:32:56.143Z,43.74
2023-01-30T16:35:34.363Z,43.36
2023-01-30T16:38:05.137Z,43.90
2023-01-30T16:40:45.164Z,44.05
2023-01-30T16:43:20.397Z,44.10
2023-01-30T16:46:42.296Z,43.96
2023-01-30T16:49:16.117Z,44.04
2023-01-30T16:51:44.946Z,44.06
2023-01-30T16:54:24.254Z,44.31
2023-01-30T16:56:55.919Z,44.11
2023-01-30T16:59:30.819Z,44.20
2023-01-30T17:02:00.089Z,44.08
2023-01-30T17:04:31.291Z,43.87
2023-01-30T17:07:01.328Z,43.65
2023-01-30T17:09:46.093Z,43.33
2023-01-30T17:12:39.121Z,42.96
2023-01-30T17:15:36.724Z,42.92
2023-01-30T17:18:05.873Z,42.57
2023-01-30T17:20:42.573Z,42.53
2023-01-30T17:23:12.962Z,42.51
2023-01-30T17:25:43.260Z,42.48
2023-01-30T17:28:18.720Z,42.23
2023-01-30T17:30:47.428Z,42.28
2023-01-30T17:33:16.118Z,42.40
2023-01-30T17:35:45.520Z,42.11
2023-01-30T17:38:14.075Z,41.97
2023-01-30T17:40:43.718Z,42.00
2023-01-30T17:43:13.646Z,41.89
2023-01-30T17:45:42.224Z,41.95
2023-01-30T17:48:11.582Z,41.65
2023-01-30T17:50:40.419Z,41.43
2023-01-30T17:53:09.018Z,41.70
2023-01-30T17:55:37.754Z,41.51
2023-01-30T17:58:06.399Z,41.40
2023-01-30T18:00:36.431Z,41.60
2023-01-30T18:03:05.210Z,41.33
2023-01-30T18:05:33.781Z,41.71
2023-01-30T18:08:02.381Z,41.50
2023-01-30T18:10:31.240Z,41.81
2023-01-30T18:12:59.886Z,41.56
2023-01-30T18:15:28.700Z,41.79
2023-01-30T18:17:58.783Z,41.70
2023-01-30T18:20:27.410Z,41.65
2023-01-30T18:22:55.999Z,41.64
2023-01-30T18:25:24.671Z,41.74
2023-01-30T18:27:53.455Z,41.70
2023-01-30T18:30:24.967Z,41.46
2023-01-30T18:32:54.135Z,41.58
2023-01-30T18:35:24.650Z,41.83
2023-01-30T18:37:53.335Z,41.99
2023-01-30T18:40:22.640Z,41.63
2023-01-30T18:42:51.424Z,41.67
2023-01-30T18:45:20.085Z,41.68
2023-01-30T18:47:48.849Z,41.52
2023-01-30T18:50:18.260Z,41.59
2023-01-30T18:52:48.541Z,41.35
2023-01-30T18:55:17.348Z,41.57
2023-01-30T18:57:45.968Z,41.37
2023-01-30T19:00:17.502Z,41.32
2023-01-30T19:02:46.479Z,41.38
2023-01-30T19:05:15.165Z,41.13
2023-01-30T19:07:43.741Z,41.24
2023-01-30T19:10:17.537Z,41.20
2023-01-30T19:13:04.152Z,41.10
2023-01-30T19:15:32.826Z,41.04
2023-01-30T19:18:01.424Z,40.92
2023-01-30T19:20:31.051Z,40.87
2023-01-30T19:22:59.960Z,40.94
2023-01-30T19:25:30.202Z,40.97
2023-01-30T19:27:58.847Z,40.76
2023-01-30T19:30:29.473Z,40.88
2023-01-30T19:32:59.306Z,41.02
2023-01-30T19:35:28.047Z,41.01
2023-01-30T19:38:00.393Z,41.30
2023-01-30T19:40:30.476Z,41.26
2023-01-30T19:43:05.737Z,41.31
2023-01-30T19:45:40.299Z,41.34
2023-01-30T19:48:09.726Z,41.21
2023-01-30T19:50:38.542Z,41.22
2023-01-30T19:53:08.183Z,41.11
2023-01-30T19:55:39.782Z,40.97
2023-01-30T19:58:08.383Z,41.04
2023-01-30T20:00:37.027Z,40.78
2023-01-30T20:03:05.753Z,40.82
2023-01-30T20:05:34.547Z,40.75
2023-01-30T20:08:03.702Z,40.57
2023-01-30T20:10:32.353Z,40.64
2023-01-30T20:13:02.431Z,40.58
2023-01-30T20:15:31.137Z,40.62
2023-01-30T20:17:59.742Z,40.51
2023-01-30T20:20:30.534Z,40.49
2023-01-30T20:23:01.447Z,40.36
2023-01-30T20:25:30.636Z,40.39
2023-01-30T20:27:59.272Z,40.38
2023-01-30T20:30:29.330Z,40.36
2023-01-30T20:32:58.025Z,40.68
2023-01-30T20:35:26.738Z,40.59
2023-01-30T20:37:55.360Z,40.34
2023-01-30T20:40:24.042Z,40.34
2023-01-30T20:42:52.679Z,40.43
2023-01-30T20:45:21.308Z,40.35
2023-01-30T20:47:51.407Z,40.28
2023-01-30T20:50:20.524Z,40.21
2023-01-30T20:52:51.592Z,40.16
2023-01-30T20:55:20.813Z,40.15
2023-01-30T20:57:49.649Z,40.08
2023-01-30T21:00:20.160Z,40.05
2023-01-30T21:02:53.569Z,40.14
2023-01-30T21:05:22.184Z,39.89
2023-01-30T21:07:50.857Z,39.90
2023-01-30T21:10:19.638Z,39.90
2023-01-30T21:12:48.234Z,39.86
2023-01-30T21:15:17.551Z,39.73
2023-01-30T21:17:47.600Z,39.96
2023-01-30T21:20:18.018Z,39.83
2023-01-30T21:22:46.623Z,39.76
2023-01-30T21:25:15.163Z,39.85
2023-01-30T21:27:44.547Z,39.73
2023-01-30T21:30:14.096Z,39.78
2023-01-30T21:32:42.685Z,39.88
2023-01-30T21:35:11.585Z,39.95
2023-01-30T21:37:59.147Z,40.09
2023-01-30T21:40:45.173Z,40.12
2023-01-30T21:43:16.623Z,40.14
2023-01-30T21:45:45.234Z,40.28
2023-01-30T21:48:13.946Z,40.41
2023-01-30T21:50:42.487Z,40.49
2023-01-30T21:53:12.397Z,40.48
2023-01-30T21:55:41.085Z,40.74
2023-01-30T21:58:09.665Z,40.58
2023-01-30T22:00:38.182Z,40.85
2023-01-30T22:03:06.884Z,40.84
2023-01-30T22:05:36.719Z,40.84
2023-01-30T22:08:06.168Z,40.70
2023-01-30T22:10:36.399Z,40.57
2023-01-30T22:13:04.979Z,40.46
2023-01-30T22:15:34.177Z,40.55
2023-01-30T22:18:04.026Z,40.39
2023-01-30T22:20:32.568Z,40.47
2023-01-30T22:23:01.078Z,40.35
2023-01-30T22:25:29.813Z,40.39
2023-01-30T22:27:59.712Z,40.38
2023-01-30T22:30:28.252Z,40.26
2023-01-30T22:32:56.829Z,40.13
2023-01-30T22:35:25.467Z,40.05
2023-01-30T22:37:54.265Z,40.08
2023-01-30T22:40:22.982Z,40.01
2023-01-30T22:42:51.502Z,40.12
2023-01-30T22:45:21.688Z,39.93
2023-01-30T22:47:50.472Z,39.98
2023-01-30T22:50:19.446Z,40.09
2023-01-30T22:52:47.972Z,39.98
2023-01-30T22:55:16.918Z,40.02
2023-01-30T22:57:45.528Z,39.91
2023-01-30T23:00:14.754Z,39.72
2023-01-30T23:02:44.790Z,39.83
2023-01-30T23:05:13.528Z,39.77
2023-01-30T23:07:42.119Z,39.56
2023-01-30T23:10:12.019Z,39.61
2023-01-30T23:12:54.478Z,39.49
2023-01-30T23:15:23.214Z,39.59
2023-01-30T23:18:10.607Z,39.42
2023-01-30T23:20:39.180Z,39.73
2023-01-30T23:23:07.887Z,39.52
2023-01-30T23:25:40.431Z,39.34
2023-01-30T23:28:09.138Z,39.53
2023-01-30T23:30:39.015Z,39.48
2023-01-30T23:33:09.153Z,39.41
2023-01-30T23:35:37.828Z,39.39
2023-01-30T23:38:19.289Z,39.31
2023-01-30T23:40:48.860Z,39.40
2023-01-30T23:43:17.683Z,39.24
2023-01-30T23:45:46.304Z,39.25
2023-01-30T23:48:16.374Z,39.35
2023-01-30T23:50:44.957Z,39.27
2023-01-30T23:53:13.560Z,39.28
2023-01-30T23:55:44.780Z,39.17
2023-01-30T23:58:13.310Z,39.08
